createdAt,value
2022-10-20T00:01:36.661Z,100.00
2022-10-20T00:04:05.597Z,100.00
2022-10-20T00:06:35.117Z,100.00
2022-10-20T00:09:06.140Z,100.00
2022-10-20T00:11:34.723Z,100.00
2022-10-20T00:14:05.925Z,100.00
2022-10-20T00:16:37.565Z,100.00
2022-10-20T00:19:07.375Z,100.00
2022-10-20T00:21:35.991Z,100.00
2022-10-20T00:24:05.782Z,100.00
2022-10-20T00:26:34.258Z,100.00
2022-10-20T00:29:05.569Z,100.00
2022-10-20T00:31:34.600Z,100.00
2022-10-20T00:34:03.149Z,100.00
2022-10-20T00:36:34.129Z,100.00
2022-10-20T00:39:05.775Z,100.00
2022-10-20T00:41:34.953Z,100.00
2022-10-20T00:44:21.474Z,100.00
2022-10-20T00:46:50.507Z,100.00
2022-10-20T00:49:23.147Z,100.00
2022-10-20T00:51:53.126Z,100.00
2022-10-20T00:54:25.733Z,100.00
2022-10-20T00:56:57.007Z,100.00
2022-10-20T00:59:29.512Z,100.00
2022-10-20T01:01:59.204Z,100.00
2022-10-20T01:04:31.954Z,100.00
2022-10-20T01:07:00.561Z,100.00
2022-10-20T01:09:29.875Z,100.00
2022-10-20T01:12:04.709Z,100.00
2022-10-20T01:14:42.527Z,100.00
2022-10-20T01:17:24.457Z,100.00
2022-10-20T01:20:19.008Z,100.00
2022-10-20T01:23:03.755Z,100.00
2022-10-20T01:25:47.565Z,100.00
2022-10-20T01:28:24.340Z,100.00
2022-10-20T01:30:58.427Z,100.00
2022-10-20T01:33:39.013Z,100.00
2022-10-20T01:36:15.553Z,100.00
2022-10-20T01:38:49.938Z,100.00
2022-10-20T01:41:23.536Z,100.00
2022-10-20T01:43:55.152Z,100.00
2022-10-20T01:46:28.042Z,100.00
2022-10-20T01:48:57.965Z,100.00
2022-10-20T01:51:26.578Z,100.00
2022-10-20T01:53:55.890Z,100.00
2022-10-20T01:56:31.185Z,100.00
2022-10-20T01:59:34.024Z,100.00
2022-10-20T02:02:19.024Z,100.00
2022-10-20T02:05:01.319Z,100.00
2022-10-20T02:07:32.810Z,100.00
2022-10-20T02:10:08.028Z,100.00
2022-10-20T02:12:40.147Z,100.00
2022-10-20T02:15:16.576Z,100.00
2022-10-20T02:17:48.267Z,100.00
2022-10-20T02:20:18.254Z,100.00
2022-10-20T02:22:47.105Z,100.00
2022-10-20T02:25:16.013Z,100.00
2022-10-20T02:27:49.080Z,100.00
2022-10-20T02:30:19.714Z,100.00
2022-10-20T02:32:52.949Z,100.00
2022-10-20T02:35:24.483Z,100.00
2022-10-20T02:37:52.839Z,100.00
2022-10-20T02:40:22.434Z,100.00
2022-10-20T02:42:54.178Z,100.00
2022-10-20T02:45:23.943Z,100.00
2022-10-20T02:47:52.674Z,100.00
2022-10-20T02:50:21.183Z,100.00
2022-10-20T02:52:49.698Z,100.00
2022-10-20T02:57:54.041Z,100.00
2022-10-20T03:00:29.669Z,100.00
2022-10-20T03:02:58.308Z,100.00
2022-10-20T03:05:27.201Z,100.00
2022-10-20T03:07:55.732Z,100.00
2022-10-20T03:10:24.350Z,100.00
2022-10-20T03:12:53.465Z,100.00
2022-10-20T03:15:21.917Z,100.00
2022-10-20T03:17:51.835Z,100.00
2022-10-20T03:20:20.723Z,100.00
2022-10-20T03:22:49.699Z,100.00
2022-10-20T03:25:18.187Z,100.00
2022-10-20T03:27:46.628Z,100.00
2022-10-20T03:30:15.564Z,100.00
2022-10-20T03:32:44.245Z,100.00
2022-10-20T03:35:14.095Z,100.00
2022-10-20T03:37:43.003Z,100.00
2022-10-20T03:40:11.864Z,100.00
2022-10-20T03:42:40.471Z,100.00
2022-10-20T03:45:10.426Z,100.00
2022-10-20T03:47:40.862Z,100.00
2022-10-20T03:50:09.842Z,100.00
2022-10-20T03:52:39.966Z,100.00
2022-10-20T03:55:09.327Z,100.00
2022-10-20T03:57:38.362Z,100.00
2022-10-20T04:00:08.450Z,100.00
2022-10-20T04:02:45.965Z,100.00
2022-10-20T04:05:16.697Z,100.00
2022-10-20T04:07:47.095Z,100.00
2022-10-20T04:10:17.356Z,100.00
2022-10-20T04:12:46.450Z,100.00
2022-10-20T04:15:15.215Z,100.00
2022-10-20T04:17:43.636Z,100.00
2022-10-20T04:20:13.005Z,100.00
2022-10-20T04:22:42.262Z,100.00
2022-10-20T04:25:12.957Z,100.00
2022-10-20T04:27:42.341Z,100.00
2022-10-20T04:30:12.500Z,100.00
2022-10-20T04:32:41.270Z,100.00
2022-10-20T04:35:10.591Z,100.00
2022-10-20T04:37:39.860Z,100.00
2022-10-20T04:40:10.329Z,100.00
2022-10-20T04:42:40.610Z,100.00
2022-10-20T04:45:10.089Z,100.00
2022-10-20T04:47:39.093Z,100.00
2022-10-20T04:50:11.711Z,100.00
2022-10-20T04:52:48.306Z,100.00
2022-10-20T04:55:21.567Z,100.00
2022-10-20T04:57:52.134Z,100.00
2022-10-20T05:00:21.589Z,100.00
2022-10-20T05:02:58.493Z,100.00
2022-10-20T05:05:30.317Z,100.00
2022-10-20T05:08:00.446Z,100.00
2022-10-20T05:10:34.449Z,100.00
2022-10-20T05:13:09.200Z,100.00
2022-10-20T05:15:40.005Z,100.00
2022-10-20T05:18:08.579Z,100.00
2022-10-20T05:21:07.977Z,100.00
2022-10-20T05:23:38.947Z,100.00
2022-10-20T05:26:09.524Z,100.00
2022-10-20T05:28:44.126Z,100.00
2022-10-20T05:31:14.948Z,100.00
2022-10-20T05:33:46.543Z,100.00
2022-10-20T05:36:21.567Z,100.00
2022-10-20T05:38:52.392Z,100.00
2022-10-20T05:41:23.449Z,100.00
2022-10-20T05:43:57.347Z,100.00
2022-10-20T05:46:27.470Z,100.00
2022-10-20T05:49:01.450Z,100.00
2022-10-20T05:51:32.310Z,100.00
2022-10-20T05:54:03.695Z,100.00
2022-10-20T05:56:34.441Z,100.00
2022-10-20T05:59:05.345Z,100.00
2022-10-20T06:01:48.786Z,100.00
2022-10-20T06:04:22.082Z,100.00
2022-10-20T06:06:54.457Z,100.00
2022-10-20T06:09:24.566Z,100.00
2022-10-20T06:11:57.104Z,100.00
2022-10-20T06:14:29.195Z,100.00
2022-10-20T06:16:58.442Z,100.00
2022-10-20T06:19:28.112Z,100.00
2022-10-20T06:22:06.827Z,100.00
2022-10-20T06:24:37.074Z,100.00
2022-10-20T06:27:05.729Z,100.00
2022-10-20T06:29:38.550Z,100.00
2022-10-20T06:34:46.244Z,100.00
2022-10-20T06:37:15.883Z,100.00
2022-10-20T06:39:47.360Z,100.00
2022-10-20T06:42:19.465Z,100.00
2022-10-20T06:44:50.284Z,100.00
2022-10-20T06:47:19.076Z,100.00
2022-10-20T06:49:51.647Z,100.00
2022-10-20T06:52:20.543Z,100.00
2022-10-20T06:54:51.377Z,100.00
2022-10-20T06:57:22.543Z,100.00
2022-10-20T07:00:02.640Z,100.00
2022-10-20T07:02:34.220Z,100.00
2022-10-20T07:05:03.558Z,100.00
2022-10-20T07:07:32.511Z,100.00
2022-10-20T07:10:06.348Z,100.00
2022-10-20T07:12:35.424Z,100.00
2022-10-20T07:15:08.970Z,100.00
2022-10-20T07:17:38.186Z,100.00
2022-10-20T07:20:15.510Z,100.00
2022-10-20T07:22:50.502Z,100.00
2022-10-20T07:25:22.643Z,100.00
2022-10-20T07:27:52.200Z,100.00
2022-10-20T07:30:22.560Z,100.00
2022-10-20T07:32:51.565Z,100.00
2022-10-20T07:35:20.414Z,100.00
2022-10-20T07:37:49.276Z,100.00
2022-10-20T07:40:18.545Z,100.00
2022-10-20T07:42:49.359Z,100.00
2022-10-20T07:45:18.254Z,100.00
2022-10-20T07:47:50.378Z,100.00
2022-10-20T07:50:19.671Z,100.00
2022-10-20T07:52:53.372Z,100.00
2022-10-20T07:55:37.998Z,100.00
2022-10-20T07:58:07.367Z,100.00
2022-10-20T08:00:36.310Z,100.00
2022-10-20T08:03:07.249Z,100.00
2022-10-20T08:05:36.582Z,100.00
2022-10-20T08:08:05.966Z,100.00
2022-10-20T08:10:35.351Z,100.00
2022-10-20T08:13:07.219Z,100.00
2022-10-20T08:15:38.257Z,100.00
2022-10-20T08:18:09.024Z,100.00
2022-10-20T08:20:41.219Z,100.00
2022-10-20T08:23:10.158Z,100.00
2022-10-20T08:25:39.031Z,100.00
2022-10-20T08:28:11.360Z,100.00
2022-10-20T08:30:47.014Z,100.00
2022-10-20T08:33:17.174Z,100.00
2022-10-20T08:35:46.360Z,100.00
2022-10-20T08:38:19.666Z,100.00
2022-10-20T08:40:48.385Z,100.00
2022-10-20T08:43:21.588Z,100.00
2022-10-20T08:45:55.376Z,100.00
2022-10-20T08:48:46.606Z,100.00
2022-10-20T08:51:22.189Z,100.00
2022-10-20T08:53:56.989Z,100.00
2022-10-20T08:56:31.621Z,100.00
2022-10-20T08:59:01.279Z,100.00
2022-10-20T09:01:34.615Z,100.00
2022-10-20T09:04:17.619Z,100.00
2022-10-20T09:06:52.377Z,100.00
2022-10-20T09:09:24.223Z,100.00
2022-10-20T09:11:57.200Z,100.00
2022-10-20T09:14:26.514Z,100.00
2022-10-20T09:17:00.806Z,100.00
2022-10-20T09:19:32.339Z,100.00
2022-10-20T09:22:08.744Z,100.00
2022-10-20T09:24:38.307Z,100.00
2022-10-20T09:27:23.666Z,100.00
2022-10-20T09:29:52.865Z,100.00
2022-10-20T09:32:46.979Z,100.00
2022-10-20T09:35:30.783Z,100.00
2022-10-20T09:38:05.187Z,100.00
2022-10-20T09:40:35.808Z,99.12
2022-10-20T09:43:12.755Z,81.44
2022-10-20T09:45:53.446Z,69.69
2022-10-20T09:48:27.273Z,62.42
2022-10-20T09:50:59.289Z,57.54
2022-10-20T09:53:30.061Z,52.31
2022-10-20T09:55:59.061Z,55.97
2022-10-20T09:58:31.417Z,55.22
2022-10-20T10:01:03.591Z,53.39
2022-10-20T10:03:41.071Z,50.05
2022-10-20T10:06:35.886Z,46.37
2022-10-20T10:09:34.658Z,45.57
2022-10-20T10:12:06.410Z,49.42
2022-10-20T10:14:38.033Z,49.44
2022-10-20T10:17:07.036Z,50.26
2022-10-20T10:19:36.884Z,50.27
2022-10-20T10:22:08.318Z,49.80
2022-10-20T10:24:44.121Z,49.00
2022-10-20T10:27:26.521Z,47.32
2022-10-20T10:29:57.395Z,51.74
2022-10-20T10:32:28.097Z,49.95
2022-10-20T10:35:20.071Z,42.59
2022-10-20T10:37:50.467Z,46.07
2022-10-20T10:40:26.315Z,44.39
2022-10-20T10:43:16.112Z,40.09
2022-10-20T10:45:53.146Z,44.49
2022-10-20T10:48:45.975Z,39.92
2022-10-20T10:51:29.442Z,40.44
2022-10-20T10:54:23.379Z,38.70
2022-10-20T10:56:58.045Z,42.15
2022-10-20T10:59:37.603Z,41.12
2022-10-20T11:02:40.288Z,36.53
2022-10-20T11:05:50.306Z,35.76
2022-10-20T11:08:35.321Z,37.37
2022-10-20T11:11:19.585Z,36.40
2022-10-20T11:14:00.004Z,37.93
2022-10-20T11:16:37.579Z,38.96
2022-10-20T11:19:54.350Z,34.58
2022-10-20T11:22:36.330Z,37.17
2022-10-20T11:25:29.292Z,35.02
2022-10-20T11:27:59.982Z,37.90
2022-10-20T11:30:31.779Z,38.60
2022-10-20T11:33:05.551Z,37.77
2022-10-20T11:35:44.448Z,37.38
2022-10-20T11:38:19.580Z,37.15
2022-10-20T11:40:57.919Z,36.86
2022-10-20T11:43:38.463Z,36.91
2022-10-20T11:46:14.074Z,41.23
2022-10-20T11:48:48.252Z,38.25
2022-10-20T11:51:41.103Z,31.71
2022-10-20T11:54:29.554Z,31.10
2022-10-20T11:57:12.878Z,35.51
2022-10-20T12:00:05.089Z,32.98
2022-10-20T12:03:03.882Z,33.78
2022-10-20T12:06:00.447Z,36.39
2022-10-20T12:08:59.030Z,41.79
2022-10-20T12:11:32.357Z,59.22
2022-10-20T12:14:13.416Z,63.96
2022-10-20T12:17:18.442Z,64.16
2022-10-20T12:19:53.835Z,75.25
2022-10-20T12:22:43.356Z,73.34
2022-10-20T12:25:38.643Z,74.75
2022-10-20T12:28:34.175Z,76.19
2022-10-20T12:31:05.296Z,82.88
2022-10-20T12:33:40.810Z,82.94
2022-10-20T12:36:33.397Z,81.32
2022-10-20T12:39:20.868Z,83.44
2022-10-20T12:42:05.329Z,84.39
2022-10-20T12:44:47.268Z,85.38
2022-10-20T12:47:23.734Z,85.32
2022-10-20T12:50:02.467Z,86.69
2022-10-20T12:52:37.451Z,85.77
2022-10-20T12:55:10.429Z,86.77
2022-10-20T12:57:46.531Z,86.23
2022-10-20T13:00:57.118Z,85.77
2022-10-20T13:03:43.274Z,86.76
2022-10-20T13:06:52.765Z,87.38
2022-10-20T13:09:26.456Z,87.86
2022-10-20T13:12:06.531Z,89.03
2022-10-20T13:14:50.017Z,89.43
2022-10-20T13:17:29.060Z,88.54
2022-10-20T13:20:03.672Z,88.72
2022-10-20T13:22:47.160Z,89.10
2022-10-20T13:25:40.082Z,89.65
2022-10-20T13:28:20.583Z,88.34
2022-10-20T13:31:18.101Z,89.50
2022-10-20T13:34:06.011Z,86.67
2022-10-20T13:37:12.036Z,87.89
2022-10-20T13:39:54.490Z,87.10
2022-10-20T13:42:44.448Z,87.54
2022-10-20T13:45:28.035Z,86.63
2022-10-20T13:48:11.079Z,85.02
2022-10-20T13:50:45.891Z,84.52
2022-10-20T13:53:23.990Z,82.31
2022-10-20T13:56:13.875Z,79.98
2022-10-20T13:59:03.174Z,81.61
2022-10-20T14:01:36.977Z,81.07
2022-10-20T14:04:25.478Z,83.56
2022-10-20T14:07:06.613Z,83.38
2022-10-20T14:09:46.588Z,83.95
2022-10-20T14:12:24.682Z,83.85
2022-10-20T14:15:07.045Z,84.40
2022-10-20T14:17:40.740Z,84.32
2022-10-20T14:20:21.033Z,84.75
2022-10-20T14:22:51.032Z,85.15
2022-10-20T14:25:23.058Z,84.92
2022-10-20T14:27:58.091Z,86.20
2022-10-20T14:30:28.596Z,87.16
2022-10-20T14:33:00.195Z,86.80
2022-10-20T14:35:34.058Z,88.27
2022-10-20T14:38:08.860Z,89.11
2022-10-20T14:40:39.529Z,89.78
2022-10-20T14:43:15.995Z,90.57
2022-10-20T14:45:55.576Z,90.22
2022-10-20T14:48:30.243Z,90.39
2022-10-20T14:50:58.986Z,89.97
2022-10-20T14:53:34.899Z,90.10
2022-10-20T14:56:07.116Z,90.48
2022-10-20T14:58:40.464Z,90.87
2022-10-20T15:01:20.836Z,91.68
2022-10-20T15:04:25.466Z,92.42
2022-10-20T15:07:07.062Z,92.08
2022-10-20T15:09:46.833Z,92.46
2022-10-20T15:12:18.675Z,94.25
2022-10-20T15:14:51.034Z,95.00
2022-10-20T15:17:42.519Z,96.22
2022-10-20T15:20:43.508Z,97.24
2022-10-20T15:23:14.994Z,97.37
2022-10-20T15:25:54.286Z,97.76
2022-10-20T15:28:31.646Z,98.71
2022-10-20T15:31:02.091Z,98.56
2022-10-20T15:33:33.461Z,99.09
2022-10-20T15:36:04.437Z,99.17
2022-10-20T15:38:34.569Z,99.68
2022-10-20T15:41:20.514Z,98.80
2022-10-20T15:43:49.352Z,98.94
2022-10-20T15:46:21.071Z,99.33
2022-10-20T15:48:53.929Z,99.61
2022-10-20T15:51:26.885Z,100.00
2022-10-20T15:53:56.333Z,100.00
2022-10-20T15:56:28.359Z,100.00
2022-10-20T15:58:56.882Z,100.00
2022-10-20T16:01:25.982Z,100.00
2022-10-20T16:03:56.963Z,100.00
2022-10-20T16:06:28.234Z,100.00
2022-10-20T16:08:58.801Z,100.00
2022-10-20T16:11:35.197Z,100.00
2022-10-20T16:14:04.122Z,100.00
2022-10-20T16:16:32.646Z,100.00
2022-10-20T16:19:02.995Z,100.00
2022-10-20T16:21:34.453Z,100.00
2022-10-20T16:24:05.856Z,100.00
2022-10-20T16:26:34.780Z,100.00
2022-10-20T16:29:03.760Z,100.00
2022-10-20T16:31:32.963Z,100.00
2022-10-20T16:34:03.035Z,100.00
2022-10-20T16:36:33.468Z,100.00
2022-10-20T16:39:02.445Z,100.00
2022-10-20T16:41:31.945Z,100.00
2022-10-20T16:44:01.353Z,100.00
2022-10-20T16:46:30.251Z,100.00
2022-10-20T16:48:59.032Z,100.00
2022-10-20T16:51:29.402Z,100.00
2022-10-20T16:54:02.902Z,100.00
2022-10-20T16:56:31.913Z,100.00
2022-10-20T16:59:01.999Z,100.00
2022-10-20T17:01:34.740Z,100.00
2022-10-20T17:04:03.488Z,100.00
2022-10-20T17:06:35.901Z,100.00
2022-10-20T17:09:05.154Z,100.00
2022-10-20T17:11:35.034Z,100.00
2022-10-20T17:14:06.555Z,100.00
2022-10-20T17:16:40.440Z,100.00
2022-10-20T17:19:09.438Z,100.00
2022-10-20T17:21:39.362Z,100.00
2022-10-20T17:24:12.492Z,100.00
2022-10-20T17:26:42.254Z,100.00
2022-10-20T17:29:11.822Z,100.00
2022-10-20T17:31:40.393Z,100.00
2022-10-20T17:34:12.558Z,100.00
2022-10-20T17:36:43.871Z,100.00
2022-10-20T17:39:18.066Z,100.00
2022-10-20T17:41:48.161Z,100.00
2022-10-20T17:44:16.940Z,100.00
2022-10-20T17:46:48.092Z,100.00
2022-10-20T17:49:20.547Z,100.00
2022-10-20T17:51:50.718Z,100.00
2022-10-20T17:54:20.507Z,100.00
2022-10-20T17:56:52.538Z,100.00
2022-10-20T17:59:21.328Z,100.00
2022-10-20T18:01:52.645Z,100.00
2022-10-20T18:04:21.824Z,100.00
2022-10-20T18:06:51.860Z,100.00
2022-10-20T18:09:21.042Z,100.00
2022-10-20T18:11:52.002Z,100.00
2022-10-20T18:14:21.392Z,100.00
2022-10-20T18:16:50.892Z,100.00
2022-10-20T18:19:20.615Z,100.00
2022-10-20T18:21:49.368Z,100.00
2022-10-20T18:24:21.554Z,100.00
2022-10-20T18:26:53.026Z,100.00
2022-10-20T18:29:22.823Z,100.00
2022-10-20T18:31:51.928Z,100.00
2022-10-20T18:34:23.507Z,100.00
2022-10-20T18:36:55.371Z,100.00
2022-10-20T18:39:25.065Z,100.00
2022-10-20T18:41:54.774Z,100.00
2022-10-20T18:44:24.110Z,100.00
2022-10-20T18:46:57.825Z,100.00
2022-10-20T18:49:26.489Z,100.00
2022-10-20T18:51:55.296Z,100.00
2022-10-20T18:54:28.350Z,100.00
2022-10-20T18:56:57.020Z,100.00
2022-10-20T18:59:25.546Z,100.00
2022-10-20T19:01:54.513Z,100.00
2022-10-20T19:04:22.992Z,100.00
2022-10-20T19:06:53.076Z,100.00
2022-10-20T19:09:23.133Z,100.00
2022-10-20T19:11:56.003Z,100.00
2022-10-20T19:14:24.442Z,100.00
2022-10-20T19:16:55.944Z,100.00
2022-10-20T19:19:24.564Z,100.00
2022-10-20T19:21:53.458Z,100.00
2022-10-20T19:24:24.961Z,100.00
2022-10-20T19:27:27.209Z,100.00
2022-10-20T19:29:47.716Z,100.00
2022-10-20T19:32:16.825Z,100.00
2022-10-20T19:34:45.499Z,100.00
2022-10-20T19:37:14.015Z,100.00
2022-10-20T19:39:47.043Z,100.00
2022-10-20T19:42:16.858Z,100.00
2022-10-20T19:44:46.648Z,100.00
2022-10-20T19:47:18.456Z,100.00
2022-10-20T19:49:47.730Z,100.00
2022-10-20T19:52:16.407Z,100.00
2022-10-20T19:54:45.177Z,100.00
2022-10-20T19:57:13.851Z,100.00
2022-10-20T19:59:44.152Z,100.00
2022-10-20T20:02:13.630Z,100.00
2022-10-20T20:04:42.896Z,100.00
2022-10-20T20:07:11.530Z,100.00
2022-10-20T20:09:40.018Z,100.00
2022-10-20T20:12:08.986Z,100.00
2022-10-20T20:14:39.487Z,100.00
2022-10-20T20:17:11.224Z,100.00
2022-10-20T20:19:40.200Z,100.00
2022-10-20T20:22:08.753Z,100.00
2022-10-20T20:24:39.085Z,100.00
2022-10-20T20:27:07.373Z,100.00
2022-10-20T20:29:36.024Z,100.00
2022-10-20T20:32:04.714Z,100.00
2022-10-20T20:34:35.087Z,100.00
2022-10-20T20:37:04.253Z,100.00
2022-10-20T20:39:32.756Z,100.00
2022-10-20T20:42:01.428Z,100.00
2022-10-20T20:44:32.471Z,100.00
2022-10-20T20:47:01.470Z,100.00
2022-10-20T20:49:35.204Z,100.00
2022-10-20T20:52:04.322Z,100.00
2022-10-20T20:54:33.212Z,100.00
2022-10-20T20:57:02.039Z,100.00
2022-10-20T20:59:31.188Z,100.00
2022-10-20T21:02:01.077Z,100.00
2022-10-20T21:04:30.718Z,100.00
2022-10-20T21:07:02.391Z,100.00
2022-10-20T21:09:32.051Z,100.00
2022-10-20T21:12:00.761Z,100.00
2022-10-20T21:14:32.471Z,100.00
2022-10-20T21:17:01.465Z,100.00
2022-10-20T21:19:30.749Z,100.00
2022-10-20T21:22:01.509Z,100.00
2022-10-20T21:24:30.588Z,100.00
2022-10-20T21:26:59.421Z,100.00
2022-10-20T21:29:28.358Z,100.00
2022-10-20T21:31:58.308Z,100.00
2022-10-20T21:34:27.710Z,100.00
2022-10-20T21:36:56.150Z,100.00
2022-10-20T21:39:27.214Z,100.00
2022-10-20T21:41:55.733Z,100.00
2022-10-20T21:44:24.414Z,100.00
2022-10-20T21:46:53.611Z,100.00
2022-10-20T21:49:26.230Z,100.00
2022-10-20T21:51:57.031Z,100.00
2022-10-20T21:54:28.848Z,100.00
2022-10-20T21:56:58.235Z,100.00
2022-10-20T21:59:28.600Z,100.00
2022-10-20T22:01:59.545Z,100.00
2022-10-20T22:04:30.396Z,100.00
2022-10-20T22:06:59.841Z,100.00
2022-10-20T22:09:30.079Z,100.00
2022-10-20T22:12:00.036Z,100.00
2022-10-20T22:14:30.747Z,100.00
2022-10-20T22:17:00.097Z,100.00
2022-10-20T22:19:29.023Z,100.00
2022-10-20T22:24:35.993Z,100.00
2022-10-20T22:27:15.415Z,100.00
2022-10-20T22:29:57.273Z,100.00
2022-10-20T22:32:26.633Z,100.00
2022-10-20T22:34:55.217Z,100.00
2022-10-20T22:37:26.660Z,100.00
2022-10-20T22:40:00.291Z,100.00
2022-10-20T22:42:29.282Z,100.00
2022-10-20T22:44:58.073Z,100.00
2022-10-20T22:47:26.811Z,100.00
2022-10-20T22:49:55.831Z,100.00
2022-10-20T22:52:24.471Z,100.00
2022-10-20T22:54:53.351Z,100.00
2022-10-20T22:57:26.245Z,100.00
2022-10-20T22:59:55.091Z,100.00
2022-10-20T23:02:29.989Z,100.00
2022-10-20T23:04:58.541Z,100.00
2022-10-20T23:07:27.189Z,100.00
2022-10-20T23:09:56.174Z,100.00
2022-10-20T23:12:26.597Z,100.00
2022-10-20T23:14:56.068Z,100.00
2022-10-20T23:17:25.086Z,100.00
2022-10-20T23:19:54.319Z,100.00
2022-10-20T23:22:23.818Z,100.00
2022-10-20T23:24:52.805Z,100.00
2022-10-20T23:27:21.281Z,100.00
2022-10-20T23:29:51.341Z,100.00
2022-10-20T23:32:20.065Z,100.00
2022-10-20T23:34:48.692Z,100.00
2022-10-20T23:37:19.972Z,100.00
2022-10-20T23:39:48.329Z,100.00
2022-10-20T23:42:17.201Z,100.00
2022-10-20T23:44:45.556Z,100.00
2022-10-20T23:47:15.556Z,100.00
2022-10-20T23:49:44.178Z,100.00
2022-10-20T23:52:12.735Z,100.00
2022-10-20T23:54:41.308Z,100.00
2022-10-20T23:57:10.244Z,100.00
2022-10-20T23:59:38.735Z,100.00
